Latest Weather Observations for Moss Vale

IDN60801

Issued at 11:02 am EDT Thursday 21 November 2019 (issued every 10 minutes, with the page automatically refreshed every 10 minutes)

About weather observations | Map of weather stations | Latest weather observations for NSW | Other Formats
Station Details ID: 068239 Name: MOSS VALE AWS Lat: -34.53 Lon: 150.42 Height: 678.4 m
Data from the previous 72 hours. | See also: Recent months at Moss Vale
Date/Time
EDT
Temp
°C
App
Temp
°C
Dew
Point
°C
Rel
Hum
%
Delta-T
°C
Wind Press
QNH
hPa
Press
MSL
hPa
Rain since
9am
mm
Dir  Spd
km/h
Gust
km/h
Spd
kts
Gust
kts
21/11:00am 29.0 23.2 -1.2 14 14.5 N 19 28 10 15 1016.5 1014.4 0.0
21/10:30am 27.6 21.5 0.4 17 13.3 NNW 22 30 12 16 1016.7 1014.6 0.0
21/10:00am 26.2 19.9 1.5 20 12.2 N 24 30 13 16 1017.0 1015.0 0.0
21/09:30am 24.8 20.0 5.6 29 10.1 NNE 20 24 11 13 1017.2 1015.2 0.0
21/09:00am 22.7 18.6 8.8 41 7.6 NE 20 26 11 14 1017.4 1015.4 0.0
21/08:30am 21.4 17.4 8.3 43 7.1 NNE 19 24 10 13 1017.5 1015.5 0.0
21/08:00am 20.3 17.6 8.9 48 6.2 NE 13 15 7 8 1017.6 1015.6 0.0
21/07:30am 18.6 17.1 9.1 54 5.1 ENE 7 17 4 9 1017.6 1015.6 0.0
21/07:00am 16.4 14.4 10.3 67 3.3 NE 11 15 6 8 1017.4 1015.4 0.0
21/06:30am 13.5 12.4 9.9 79 1.9 NW 6 15 3 8 1017.4 1015.4 0.0
21/06:00am 12.4 11.3 10.1 86 1.2 NNE 6 7 3 4 1017.3 1015.3 0.0
21/05:30am 11.8 11.2 10.4 91 0.7 NNE 4 7 2 4 1017.0 1015.0 0.0
21/05:00am 11.5 11.6 10.1 91 0.7 CALM 0 6 0 3 1016.9 1014.9 0.0
21/04:30am 11.6 10.5 10.0 90 0.8 NNE 6 9 3 5 1017.0 1015.0 0.0
21/04:00am 11.3 10.3 10.2 93 0.6 NNE 6 11 3 6 1017.1 1015.1 0.0
21/03:30am 11.9 11.0 10.8 93 0.6 NNE 6 9 3 5 1017.3 1015.3 0.0
21/03:00am 12.1 11.7 11.0 93 0.6 N 4 7 2 4 1017.6 1015.6 0.0
21/02:30am 12.2 10.1 11.1 93 0.6 NE 13 17 7 9 1017.6 1015.6 0.0
21/02:00am 11.5 10.0 10.4 93 0.6 NE 9 11 5 6 1018.0 1015.9 0.0
21/01:30am 12.1 11.0 10.8 92 0.7 NE 7 9 4 5 1018.6 1016.6 0.0
21/01:00am 12.3 12.5 10.7 90 0.9 CALM 0 6 0 3 1018.9 1016.9 0.0
21/12:30am 12.1 10.6 10.5 90 0.9 N 9 15 5 8 1019.1 1017.1 0.0
21/12:00am 12.7 10.9 10.9 89 1.0 NNE 11 15 6 8 1019.5 1017.5 0.0
 
Date/Time
EDT
Temp
°C
App
Temp
°C
Dew
Point
°C
Rel
Hum
%
Delta-T
°C
Wind Press
QNH
hPa
Press
MSL
hPa
Rain since
9am
mm
Dir  Spd
km/h
Gust
km/h
Spd
kts
Gust
kts
20/11:30pm 12.5 9.1 10.7 89 1.0 NNE 19 24 10 13 1019.5 1017.5 0.0
20/11:00pm 12.5 9.4 10.2 86 1.2 NNE 17 20 9 11 1019.7 1017.7 0.0
20/10:30pm 12.7 10.7 10.2 85 1.3 NE 11 19 6 10 1019.7 1017.7 0.0
20/10:09pm 12.8 9.5 11.0 89 1.0 NE 19 28 10 15 1019.7 1017.7 0.0
20/10:00pm 12.9 9.1 11.3 90 0.9 NE 22 30 12 16 1019.6 1017.6 0.0
20/09:52pm 13.0 8.8 11.2 89 1.0 NE 24 30 13 16 1019.6 1017.6 0.0
20/09:30pm 13.1 10.6 11.0 87 1.1 NE 15 24 8 13 1019.5 1017.5 0.0
20/09:00pm 13.5 10.9 10.7 83 1.5 NE 15 20 8 11 1019.3 1017.4 0.0
20/08:30pm 14.0 11.0 10.8 81 1.7 NE 17 22 9 12 1019.0 1017.0 0.0
20/08:00pm 14.9 12.7 10.9 77 2.2 NE 13 17 7 9 1018.9 1016.9 0.0
20/07:30pm 15.8 13.0 11.2 74 2.6 ENE 17 22 9 12 1018.4 1016.4 0.0
20/07:00pm 16.6 13.2 11.3 71 3.0 ENE 20 26 11 14 1017.9 1015.8 0.0
20/06:30pm 18.1 14.4 11.4 65 3.8 ENE 22 28 12 15 1017.3 1015.3 0.0
20/06:00pm 20.0 16.3 11.5 58 4.8 ENE 22 28 12 15 1017.0 1015.0 0.0
20/05:30pm 21.4 18.1 11.7 54 5.6 E 20 28 11 15 1016.9 1014.9 0.0
20/05:00pm 22.5 18.9 11.9 51 6.2 E 22 32 12 17 1016.7 1014.6 0.0
20/04:30pm 23.2 19.2 11.9 49 6.6 ESE 24 32 13 17 1016.5 1014.4 0.0
20/04:00pm 23.7 20.0 11.4 46 7.1 E 22 30 12 16 1016.5 1014.4 0.0
20/03:30pm 24.6 21.2 10.5 41 8.1 E 19 26 10 14 1016.5 1014.4 0.0
20/03:00pm 24.0 20.0 8.4 37 8.6 ENE 19 30 10 16 1016.6 1014.5 0.0
20/02:30pm 25.0 22.9 6.7 31 9.8 ESE 7 13 4 7 1016.9 1014.9 0.0
20/02:00pm 23.2 20.4 6.9 35 8.7 N 11 17 6 9 1017.2 1015.2 0.0
20/01:30pm 22.6 20.1 9.7 44 7.2 N 13 22 7 12 1017.4 1015.4 0.0
20/01:00pm 22.0 19.1 8.2 41 7.5 E 13 20 7 11 1017.6 1015.6 0.0
20/12:30pm 20.2 17.8 8.5 47 6.3 ENE 11 19 6 10 1018.2 1016.2 0.0
20/12:00pm 19.0 16.4 9.2 53 5.3 NNE 13 24 7 13 1018.5 1016.5 0.0
20/11:30am 18.9 16.9 10.2 57 4.8 NE 11 22 6 12 1018.4 1016.4 0.0
20/11:00am 18.0 15.5 10.9 63 4.0 ENE 15 37 8 20 1018.7 1016.7 0.0
20/10:30am 16.7 14.6 9.6 63 3.8 E 11 20 6 11 1018.8 1016.8 0.0
20/10:00am 15.0 11.8 10.0 72 2.7 E 17 26 9 14 1019.1 1017.1 0.0
20/09:30am 14.3 11.1 9.9 75 2.4 ENE 17 20 9 11 1019.1 1017.1 0.0
20/09:00am 14.0 11.8 9.4 74 2.4 E 11 17 6 9 1019.2 1017.2 0.0
20/08:30am 13.9 12.2 9.7 76 2.2 E 9 13 5 7 1019.2 1017.2 0.0
20/08:00am 13.3 11.5 9.4 77 2.1 SE 9 11 5 6 1019.1 1017.1 0.0
20/07:30am 12.5 10.7 9.5 82 1.6 ESE 9 17 5 9 1018.9 1016.9 0.0
20/07:00am 12.0 11.8 9.0 82 1.6 CALM 0 0 0 0 1018.5 1016.5 0.0
20/06:30am 11.4 11.1 8.8 84 1.3 CALM 0 0 0 0 1018.2 1016.2 0.0
20/06:20am 11.1 10.4 8.5 84 1.3 ESE 2 6 1 3 1018.2 1016.2 0.0
20/06:00am 11.0 9.3 8.4 84 1.3 ESE 7 9 4 5 1018.0 1015.9 0.0
20/05:30am 11.0 8.1 8.2 83 1.4 SE 13 17 7 9 1017.4 1015.4 0.0
20/05:00am 11.0 9.3 8.4 84 1.3 SE 7 13 4 7 1017.1 1015.1 0.0
20/04:30am 11.0 8.5 8.2 83 1.4 SSE 11 15 6 8 1016.9 1014.9 0.0
20/04:00am 11.2 8.4 8.6 84 1.3 SSE 13 17 7 9 1016.7 1014.6 0.0
20/03:30am 11.4 8.7 9.0 85 1.2 SSE 13 20 7 11 1016.7 1014.6 0.0
20/03:00am 11.4 8.0 9.0 85 1.2 SSE 17 22 9 12 1016.6 1014.5 0.0
20/02:30am 11.8 8.1 9.4 85 1.3 SSE 19 24 10 13 1016.9 1014.9 0.0
20/02:00am 11.9 8.6 9.5 85 1.3 SE 17 24 9 13 1017.1 1015.1 0.0
20/01:30am 11.9 9.8 9.6 86 1.2 SSE 11 13 6 7 1017.2 1015.2 0.0
20/01:00am 11.6 9.8 9.5 87 1.1 SSE 9 13 5 7 1017.4 1015.4 0.0
20/12:30am 11.7 9.1 9.4 86 1.2 SSE 13 17 7 9 1017.5 1015.5 0.0
20/12:00am 12.1 8.9 9.8 86 1.2 SE 17 26 9 14 1017.6 1015.6 0.0
 
Date/Time
EDT
Temp
°C
App
Temp
°C
Dew
Point
°C
Rel
Hum
%
Delta-T
°C
Wind Press
QNH
hPa
Press
MSL
hPa
Rain since
9am
mm
Dir  Spd
km/h
Gust
km/h
Spd
kts
Gust
kts
19/11:30pm 12.8 9.1 10.0 83 1.5 SE 20 26 11 14 1017.4 1015.4 0.0
19/11:00pm 13.4 10.0 11.1 86 1.3 SSE 20 26 11 14 1017.3 1015.3 0.0
19/10:30pm 13.7 10.5 11.2 85 1.4 SSE 19 26 10 14 1017.2 1015.2 0.0
19/10:00pm 13.9 10.5 11.4 85 1.4 SSE 20 30 11 16 1017.1 1015.1 0.0
19/09:30pm 13.8 9.7 11.3 85 1.4 SSE 24 32 13 17 1016.9 1014.9 0.0
19/09:00pm 14.0 9.2 11.7 86 1.3 SSE 28 37 15 20 1016.3 1014.2 0.0
19/08:30pm 14.3 9.6 12.0 86 1.3 SSE 28 41 15 22 1015.6 1013.6 0.0
19/08:00pm 14.4 9.8 12.3 87 1.2 SSE 28 39 15 21 1014.9 1012.8 0.0
19/07:30pm 15.0 9.8 12.7 86 1.3 SSE 32 41 17 22 1014.0 1011.9 0.0
19/07:00pm 15.8 10.6 12.9 83 1.7 SSE 32 43 17 23 1013.3 1011.2 0.0
19/06:58pm 15.7 10.5 12.8 83 1.7 SSE 32 43 17 23 1013.3 1011.2 0.0
19/06:30pm 16.9 10.9 13.2 79 2.1 SSE 37 46 20 25 1012.7 1010.6 0.0
19/06:00pm 19.2 13.3 13.6 70 3.3 SSE 37 46 20 25 1012.1 1010.0 0.0
19/05:59pm 19.0 13.0 13.4 70 3.3 SSE 37 46 20 25 1012.2 1010.1 0.0
19/05:30pm 24.0 18.5 11.7 46 7.2 S 32 46 17 25 1010.9 1008.8 0.0
19/05:26pm 25.5 18.9 7.6 32 9.8 WSW 32 46 17 25 1010.7 1008.6 0.0
19/05:05pm 31.2 23.5 -2.7 11 16.1 W 28 48 15 26 1010.3 1008.2 0.0
19/05:00pm 31.1 23.0 -2.8 11 16.1 W 30 50 16 27 1010.5 1008.4 0.0
19/04:31pm 30.6 21.3 -2.0 12 15.6 W 37 56 20 30 1010.6 1008.5 0.0
19/04:30pm 30.4 20.6 -3.3 11 15.8 W 39 56 21 30 1010.6 1008.5 0.0
19/04:27pm 30.5 20.8 -2.1 12 15.6 W 39 56 21 30 1010.6 1008.5 0.0
19/04:21pm 30.5 22.0 -3.3 11 15.8 W 32 54 17 29 1010.6 1008.5 0.0
19/04:05pm 30.7 22.2 -3.1 11 15.9 WSW 32 52 17 28 1010.7 1008.6 0.0
19/04:00pm 30.7 22.0 -3.1 11 15.9 WSW 33 48 18 26 1010.8 1008.7 0.0
19/03:49pm 30.6 21.7 -2.0 12 15.6 W 35 54 19 29 1010.5 1008.4 0.0
19/03:30pm 30.5 21.6 -2.1 12 15.6 WSW 35 52 19 28 1010.9 1008.8 0.0
19/03:11pm 30.8 22.3 -1.9 12 15.7 WSW 33 54 18 29 1010.8 1008.7 0.0
19/03:00pm 30.4 21.5 -2.2 12 15.5 W 35 50 19 27 1011.1 1009.0 0.0
19/02:30pm 30.4 20.9 -1.1 13 15.3 WSW 39 61 21 33 1011.6 1009.5 0.0
19/02:04pm 29.6 20.0 -1.7 13 15.0 WSW 39 61 21 33 1011.8 1009.7 0.0
19/02:03pm 30.2 21.0 -1.2 13 15.2 WSW 37 50 20 27 1011.8 1009.7 0.0
19/02:00pm 29.2 19.5 -2.0 13 14.8 WSW 39 50 21 27 1011.8 1009.7 0.0
19/01:32pm 29.6 20.7 -1.7 13 15.0 W 35 56 19 30 1012.2 1010.1 0.0
19/01:30pm 29.4 20.9 -1.9 13 14.9 WSW 33 56 18 30 1012.2 1010.1 0.0
19/01:00pm 29.2 20.9 -2.0 13 14.8 W 32 50 17 27 1012.4 1010.3 0.0
19/12:48pm 28.9 20.5 -1.2 14 14.4 W 33 54 18 29 1012.7 1010.6 0.0
19/12:46pm 29.1 20.6 -2.1 13 14.7 W 33 52 18 28 1012.8 1010.7 0.0
19/12:30pm 28.7 19.5 -1.4 14 14.4 WSW 37 56 20 30 1013.0 1011.0 0.0
19/12:00pm 28.1 19.2 -1.9 14 14.1 WSW 35 56 19 30 1013.4 1011.3 0.0
19/11:31am 28.1 20.5 -1.9 14 14.1 W 28 48 15 26 1013.5 1011.4 0.0
19/11:30am 28.1 21.0 -0.9 15 13.9 W 26 39 14 21 1013.6 1011.5 0.0
19/11:00am 27.0 19.3 -0.1 17 13.1 WSW 30 48 16 26 1014.2 1012.2 0.0
19/10:59am 26.6 18.9 -0.4 17 12.9 WSW 30 48 16 26 1014.2 1012.2 0.0
19/10:30am 26.2 18.4 -0.8 17 12.8 W 30 43 16 23 1014.4 1012.4 0.0
19/10:00am 26.2 19.3 0.0 18 12.6 W 26 35 14 19 1014.4 1012.4 0.0
19/09:30am 24.6 17.2 -0.5 19 11.8 W 28 39 15 21 1014.8 1012.7 0.0
19/09:00am 24.0 17.6 1.0 22 11.1 W 24 33 13 18 1015.1 1013.0 0.0
19/08:30am 22.2 15.9 1.3 25 10.0 W 24 33 13 18 1015.1 1013.0 0.0
19/08:00am 20.5 14.3 1.9 29 8.9 W 24 32 13 17 1015.1 1013.0 0.0
19/07:30am 19.0 14.0 1.5 31 8.2 WNW 17 26 9 14 1015.0 1012.9 0.0
19/07:00am 17.1 12.9 1.9 36 7.1 W 13 17 7 9 1014.9 1012.8 0.0
19/06:30am 15.4 11.9 1.2 38 6.4 WNW 9 11 5 6 1014.9 1012.8 0.0
19/06:00am 14.8 11.3 1.3 40 6.1 WNW 9 15 5 8 1014.5 1012.5 0.0
19/05:30am 14.6 11.5 1.2 40 6.0 W 7 11 4 6 1014.1 1012.0 0.0
19/05:00am 15.0 11.5 1.2 39 6.2 WNW 9 11 5 6 1013.9 1011.8 0.0
19/04:30am 15.4 11.9 1.2 38 6.4 WNW 9 13 5 7 1013.8 1011.7 0.0
19/04:00am 15.1 11.5 0.9 38 6.4 WNW 9 13 5 7 1013.7 1011.6 0.0
19/03:30am 15.6 11.3 1.0 37 6.6 WNW 13 17 7 9 1013.9 1011.8 0.0
19/03:00am 15.9 11.5 0.5 35 6.9 WNW 13 20 7 11 1013.9 1011.8 0.0
19/02:30am 16.6 10.9 0.7 34 7.2 W 20 28 11 15 1013.8 1011.7 0.0
19/02:00am 16.4 10.9 0.5 34 7.1 W 19 26 10 14 1014.0 1011.9 0.0
19/01:30am 16.6 11.1 0.3 33 7.3 W 19 24 10 13 1014.2 1012.2 0.0
19/01:00am 16.4 11.6 0.1 33 7.3 W 15 22 8 12 1014.5 1012.5 0.0
19/12:30am 17.2 11.7 0.4 32 7.6 W 19 26 10 14 1015.0 1012.9 0.0
19/12:00am 17.4 11.8 0.1 31 7.8 WNW 19 24 10 13 1015.2 1013.1 0.0
 
Date/Time
EDT
Temp
°C
App
Temp
°C
Dew
Point
°C
Rel
Hum
%
Delta-T
°C
Wind Press
QNH
hPa
Press
MSL
hPa
Rain since
9am
mm
Dir  Spd
km/h
Gust
km/h
Spd
kts
Gust
kts
18/11:30pm 18.6 12.1 0.2 29 8.4 W 24 33 13 18 1015.2 1013.1 0.0
18/11:00pm 19.5 11.4 0.0 27 8.9 W 32 41 17 22 1015.0 1012.9 0.0
18/10:30pm 19.7 13.6 0.2 27 9.0 W 22 35 12 19 1015.3 1013.2 0.0
18/10:00pm 18.8 14.7 -0.1 28 8.6 WSW 11 17 6 9 1015.4 1013.3 0.0
18/09:30pm 19.1 15.9 -0.8 26 8.9 WNW 6 11 3 6 1015.3 1013.2 0.0
18/09:00pm 19.9 16.0 -1.2 24 9.4 WNW 9 11 5 6 1015.1 1013.0 0.0
18/08:30pm 21.2 16.6 -1.3 22 10.2 NW 13 17 7 9 1014.9 1012.8 0.0
18/08:00pm 21.4 15.9 -1.8 21 10.4 WNW 17 26 9 14 1014.6 1012.6 0.0
18/07:30pm 22.7 16.2 -2.1 19 11.2 W 22 33 12 18 1014.4 1012.4 0.0
18/07:00pm 23.6 16.0 -2.1 18 11.6 W 28 43 15 23 1014.2 1012.2 0.0
18/06:30pm 24.4 16.3 -3.0 16 12.3 W 30 39 16 21 1013.9 1011.8 0.0
18/06:00pm 25.1 17.7 -3.3 15 12.7 WNW 26 37 14 20 1013.6 1011.5 0.0
18/05:30pm 25.7 18.0 -2.8 15 13.0 W 28 43 15 23 1013.7 1011.6 0.0
18/05:03pm 25.6 18.0 -2.1 16 12.8 W 28 46 15 25 1013.6 1011.5 0.0
18/05:00pm 25.7 18.6 -1.2 17 12.6 W 26 39 14 21 1013.8 1011.7 0.0
18/04:30pm 25.6 17.4 -1.2 17 12.5 W 32 46 17 25 1014.0 1011.9 0.0
18/04:22pm 25.9 18.5 -1.0 17 12.7 WNW 28 46 15 25 1013.8 1011.7 0.0
18/04:00pm 26.1 18.8 0.0 18 12.5 WNW 28 39 15 21 1014.1 1012.0 0.0
18/03:30pm 25.8 18.0 -1.1 17 12.6 W 30 48 16 26 1014.4 1012.4 0.0
18/03:00pm 25.3 18.7 -0.7 18 12.3 WNW 24 41 13 22 1014.6 1012.6 0.0
18/02:30pm 24.7 18.0 -1.2 18 12.0 W 24 41 13 22 1015.1 1013.0 0.0
18/02:00pm 24.3 17.0 -0.1 20 11.5 W 28 48 15 26 1015.5 1013.5 0.0
18/01:56pm 23.8 15.9 -1.2 19 11.5 W 30 48 16 26 1015.6 1013.6 0.0
18/01:30pm 23.6 16.8 0.7 22 10.9 WNW 26 39 14 21 1016.0 1014.0 0.0
18/01:00pm 23.0 14.9 -0.5 21 10.9 W 32 48 17 26 1016.8 1014.8 0.0
18/12:52pm 23.1 15.7 -0.4 21 11.0 WNW 28 48 15 26 1016.7 1014.6 0.0
18/12:30pm 22.5 15.0 -1.6 20 10.9 W 28 43 15 23 1017.1 1015.1 0.0
18/12:07pm 21.9 14.4 -1.4 21 10.6 W 28 46 15 25 1017.2 1015.2 0.0
18/12:00pm 22.2 14.9 0.1 23 10.3 W 28 43 15 23 1017.4 1015.4 0.0
18/11:30am 20.3 13.6 1.7 29 8.8 WNW 26 39 14 21 1018.0 1015.9 0.0
18/11:08am 20.0 12.8 0.5 27 9.0 W 28 46 15 25 1018.3 1016.3 0.0

Other formats

Comma delimited format used in spreadsheet applications
http://www.bom.gov.au/fwo/IDN60801/IDN60801.94746.axf

JavaScript Object Notation format (JSON) in row-major order
http://www.bom.gov.au/fwo/IDN60801/IDN60801.94746.json

Data quality

Most of these data are generated automatically and are frequently updated. Quality checks on data are not normally performed. It is possible for incorrect values to appear. Refer to information at About Latest Weather Observations and please check the disclaimer before using these data.